sensor_id;sensor_type;location;lat;lon;timestamp;P1;durP1;ratioP1;P2;durP2;ratioP2
54502;SDS011;40411;50.090;21.954;2023-11-19T00:00:45;22.33;;;9.10;;
54502;SDS011;40411;50.090;21.954;2023-11-19T00:03:31;16.02;;;7.30;;
54502;SDS011;40411;50.090;21.954;2023-11-19T00:05:59;17.38;;;7.68;;
54502;SDS011;40411;50.090;21.954;2023-11-19T00:08:24;13.95;;;7.90;;
54502;SDS011;40411;50.090;21.954;2023-11-19T00:10:50;18.42;;;7.90;;
54502;SDS011;40411;50.090;21.954;2023-11-19T00:13:16;14.70;;;7.75;;
54502;SDS011;40411;50.090;21.954;2023-11-19T00:15:42;15.80;;;8.60;;
54502;SDS011;40411;50.090;21.954;2023-11-19T00:18:08;21.90;;;8.52;;
54502;SDS011;40411;50.090;21.954;2023-11-19T00:20:33;14.43;;;7.88;;
54502;SDS011;40411;50.090;21.954;2023-11-19T00:22:59;14.38;;;7.03;;
54502;SDS011;40411;50.090;21.954;2023-11-19T00:25:26;15.55;;;7.55;;
54502;SDS011;40411;50.090;21.954;2023-11-19T00:27:52;18.95;;;7.57;;
54502;SDS011;40411;50.090;21.954;2023-11-19T00:30:19;16.20;;;7.97;;
54502;SDS011;40411;50.090;21.954;2023-11-19T00:32:45;14.73;;;7.18;;
54502;SDS011;40411;50.090;21.954;2023-11-19T00:35:11;15.32;;;7.28;;
54502;SDS011;40411;50.090;21.954;2023-11-19T00:37:39;12.43;;;7.20;;
54502;SDS011;40411;50.090;21.954;2023-11-19T00:40:05;19.27;;;8.90;;
54502;SDS011;40411;50.090;21.954;2023-11-19T00:42:31;15.30;;;6.28;;
54502;SDS011;40411;50.090;21.954;2023-11-19T00:44:57;15.57;;;7.70;;
54502;SDS011;40411;50.090;21.954;2023-11-19T00:47:23;16.25;;;8.55;;
54502;SDS011;40411;50.090;21.954;2023-11-19T00:49:49;14.52;;;8.13;;
54502;SDS011;40411;50.090;21.954;2023-11-19T00:52:16;17.48;;;8.00;;
54502;SDS011;40411;50.090;21.954;2023-11-19T00:54:42;14.90;;;7.47;;
54502;SDS011;40411;50.090;21.954;2023-11-19T00:57:08;13.48;;;7.68;;
54502;SDS011;40411;50.090;21.954;2023-11-19T00:59:34;18.38;;;7.72;;
54502;SDS011;40411;50.090;21.954;2023-11-19T01:02:00;17.75;;;8.27;;
54502;SDS011;40411;50.090;21.954;2023-11-19T01:04:29;17.42;;;7.63;;
54502;SDS011;40411;50.090;21.954;2023-11-19T01:06:55;17.52;;;8.00;;
54502;SDS011;40411;50.090;21.954;2023-11-19T01:09:21;13.93;;;7.18;;
54502;SDS011;40411;50.090;21.954;2023-11-19T01:11:47;13.52;;;7.63;;
54502;SDS011;40411;50.090;21.954;2023-11-19T01:14:12;17.50;;;9.13;;
54502;SDS011;40411;50.090;21.954;2023-11-19T01:16:38;18.67;;;8.25;;
54502;SDS011;40411;50.090;21.954;2023-11-19T01:19:04;17.45;;;8.70;;
54502;SDS011;40411;50.090;21.954;2023-11-19T01:21:30;16.73;;;7.15;;
54502;SDS011;40411;50.090;21.954;2023-11-19T01:23:59;19.52;;;7.78;;
54502;SDS011;40411;50.090;21.954;2023-11-19T01:26:25;10.63;;;6.68;;
54502;SDS011;40411;50.090;21.954;2023-11-19T01:28:52;18.05;;;7.38;;
54502;SDS011;40411;50.090;21.954;2023-11-19T01:31:18;12.23;;;6.93;;
54502;SDS011;40411;50.090;21.954;2023-11-19T01:33:44;15.32;;;7.10;;
54502;SDS011;40411;50.090;21.954;2023-11-19T01:36:15;15.45;;;8.02;;
54502;SDS011;40411;50.090;21.954;2023-11-19T01:38:41;15.15;;;7.88;;
54502;SDS011;40411;50.090;21.954;2023-11-19T01:41:07;14.07;;;8.50;;
54502;SDS011;40411;50.090;21.954;2023-11-19T01:43:37;17.52;;;7.93;;
54502;SDS011;40411;50.090;21.954;2023-11-19T01:46:07;18.83;;;7.45;;
54502;SDS011;40411;50.090;21.954;2023-11-19T01:48:37;24.92;;;8.73;;
54502;SDS011;40411;50.090;21.954;2023-11-19T01:51:06;19.38;;;8.40;;
54502;SDS011;40411;50.090;21.954;2023-11-19T01:53:33;19.73;;;8.77;;
54502;SDS011;40411;50.090;21.954;2023-11-19T01:56:01;24.10;;;8.73;;
54502;SDS011;40411;50.090;21.954;2023-11-19T01:58:28;15.73;;;8.07;;
54502;SDS011;40411;50.090;21.954;2023-11-19T02:00:56;20.60;;;8.18;;
54502;SDS011;40411;50.090;21.954;2023-11-19T02:03:22;19.00;;;7.97;;
54502;SDS011;40411;50.090;21.954;2023-11-19T02:05:51;17.80;;;6.82;;
54502;SDS011;40411;50.090;21.954;2023-11-19T02:08:18;17.45;;;8.45;;
54502;SDS011;40411;50.090;21.954;2023-11-19T02:10:45;15.32;;;8.43;;
54502;SDS011;40411;50.090;21.954;2023-11-19T02:13:10;13.98;;;6.75;;
54502;SDS011;40411;50.090;21.954;2023-11-19T02:15:40;19.75;;;8.63;;
54502;SDS011;40411;50.090;21.954;2023-11-19T02:18:19;14.25;;;6.53;;
54502;SDS011;40411;50.090;21.954;2023-11-19T02:23:16;14.48;;;7.63;;
54502;SDS011;40411;50.090;21.954;2023-11-19T02:25:43;19.90;;;8.05;;
54502;SDS011;40411;50.090;21.954;2023-11-19T02:28:22;12.50;;;7.22;;
54502;SDS011;40411;50.090;21.954;2023-11-19T02:30:48;12.88;;;6.53;;
54502;SDS011;40411;50.090;21.954;2023-11-19T02:33:14;18.55;;;8.77;;
54502;SDS011;40411;50.090;21.954;2023-11-19T02:35:40;22.42;;;7.55;;
54502;SDS011;40411;50.090;21.954;2023-11-19T02:38:06;12.93;;;7.43;;
54502;SDS011;40411;50.090;21.954;2023-11-19T02:40:33;12.48;;;6.38;;
54502;SDS011;40411;50.090;21.954;2023-11-19T02:42:59;13.25;;;6.38;;
54502;SDS011;40411;50.090;21.954;2023-11-19T02:45:25;28.13;;;8.38;;
54502;SDS011;40411;50.090;21.954;2023-11-19T02:47:52;11.98;;;7.05;;
54502;SDS011;40411;50.090;21.954;2023-11-19T02:50:18;18.88;;;8.82;;
54502;SDS011;40411;50.090;21.954;2023-11-19T02:52:51;13.37;;;7.47;;
54502;SDS011;40411;50.090;21.954;2023-11-19T02:55:18;16.80;;;8.63;;
54502;SDS011;40411;50.090;21.954;2023-11-19T02:57:45;24.95;;;6.82;;
54502;SDS011;40411;50.090;21.954;2023-11-19T03:00:15;14.40;;;7.82;;
54502;SDS011;40411;50.090;21.954;2023-11-19T03:02:42;17.05;;;8.60;;
54502;SDS011;40411;50.090;21.954;2023-11-19T03:05:14;14.43;;;7.57;;
54502;SDS011;40411;50.090;21.954;2023-11-19T03:07:43;18.35;;;9.13;;
54502;SDS011;40411;50.090;21.954;2023-11-19T03:10:10;21.92;;;9.55;;
54502;SDS011;40411;50.090;21.954;2023-11-19T03:12:39;18.23;;;7.40;;
54502;SDS011;40411;50.090;21.954;2023-11-19T03:15:06;18.00;;;9.15;;
54502;SDS011;40411;50.090;21.954;2023-11-19T03:17:33;19.58;;;9.85;;
54502;SDS011;40411;50.090;21.954;2023-11-19T03:20:00;15.13;;;7.82;;
54502;SDS011;40411;50.090;21.954;2023-11-19T03:22:26;17.88;;;9.00;;
54502;SDS011;40411;50.090;21.954;2023-11-19T03:24:52;16.80;;;8.05;;
54502;SDS011;40411;50.090;21.954;2023-11-19T03:27:18;19.05;;;9.25;;
54502;SDS011;40411;50.090;21.954;2023-11-19T03:29:43;16.60;;;8.48;;
54502;SDS011;40411;50.090;21.954;2023-11-19T03:32:09;18.65;;;9.07;;
54502;SDS011;40411;50.090;21.954;2023-11-19T03:34:35;18.15;;;8.35;;
54502;SDS011;40411;50.090;21.954;2023-11-19T03:37:01;16.55;;;8.63;;
54502;SDS011;40411;50.090;21.954;2023-11-19T03:39:28;17.13;;;9.18;;
54502;SDS011;40411;50.090;21.954;2023-11-19T03:41:54;19.30;;;9.00;;
54502;SDS011;40411;50.090;21.954;2023-11-19T03:44:20;20.08;;;9.13;;
54502;SDS011;40411;50.090;21.954;2023-11-19T03:46:46;19.85;;;8.80;;
54502;SDS011;40411;50.090;21.954;2023-11-19T03:49:12;16.10;;;7.53;;
54502;SDS011;40411;50.090;21.954;2023-11-19T03:51:38;18.80;;;9.20;;
54502;SDS011;40411;50.090;21.954;2023-11-19T03:54:04;18.25;;;8.48;;
54502;SDS011;40411;50.090;21.954;2023-11-19T03:56:32;15.98;;;8.68;;
54502;SDS011;40411;50.090;21.954;2023-11-19T03:58:58;16.85;;;8.75;;
54502;SDS011;40411;50.090;21.954;2023-11-19T04:01:24;17.25;;;7.85;;
54502;SDS011;40411;50.090;21.954;2023-11-19T04:03:49;13.43;;;7.88;;
54502;SDS011;40411;50.090;21.954;2023-11-19T04:06:15;15.13;;;8.30;;
54502;SDS011;40411;50.090;21.954;2023-11-19T04:08:41;15.60;;;7.78;;
54502;SDS011;40411;50.090;21.954;2023-11-19T04:11:07;15.57;;;7.82;;
54502;SDS011;40411;50.090;21.954;2023-11-19T04:13:34;20.48;;;9.23;;
54502;SDS011;40411;50.090;21.954;2023-11-19T04:16:00;18.83;;;9.38;;
54502;SDS011;40411;50.090;21.954;2023-11-19T04:18:27;19.92;;;8.50;;
54502;SDS011;40411;50.090;21.954;2023-11-19T04:20:52;17.65;;;8.93;;
54502;SDS011;40411;50.090;21.954;2023-11-19T04:23:18;18.52;;;8.75;;
54502;SDS011;40411;50.090;21.954;2023-11-19T04:25:44;16.45;;;7.78;;
54502;SDS011;40411;50.090;21.954;2023-11-19T04:28:10;16.50;;;8.57;;
54502;SDS011;40411;50.090;21.954;2023-11-19T04:30:36;12.07;;;7.55;;
54502;SDS011;40411;50.090;21.954;2023-11-19T04:33:03;16.75;;;8.30;;
54502;SDS011;40411;50.090;21.954;2023-11-19T04:35:29;18.45;;;8.73;;
54502;SDS011;40411;50.090;21.954;2023-11-19T04:37:55;19.05;;;8.23;;
54502;SDS011;40411;50.090;21.954;2023-11-19T04:40:22;21.42;;;9.85;;
54502;SDS011;40411;50.090;21.954;2023-11-19T04:42:49;17.60;;;8.50;;
54502;SDS011;40411;50.090;21.954;2023-11-19T04:45:14;18.08;;;8.50;;
54502;SDS011;40411;50.090;21.954;2023-11-19T04:47:44;17.98;;;9.15;;
54502;SDS011;40411;50.090;21.954;2023-11-19T04:50:10;23.38;;;9.93;;
54502;SDS011;40411;50.090;21.954;2023-11-19T04:52:39;17.42;;;9.02;;
54502;SDS011;40411;50.090;21.954;2023-11-19T04:55:05;25.05;;;9.43;;
54502;SDS011;40411;50.090;21.954;2023-11-19T04:57:32;17.00;;;8.55;;
54502;SDS011;40411;50.090;21.954;2023-11-19T04:59:58;17.33;;;7.47;;
54502;SDS011;40411;50.090;21.954;2023-11-19T05:02:24;21.20;;;9.25;;
54502;SDS011;40411;50.090;21.954;2023-11-19T05:04:50;13.00;;;6.75;;
54502;SDS011;40411;50.090;21.954;2023-11-19T05:07:16;22.80;;;9.65;;
54502;SDS011;40411;50.090;21.954;2023-11-19T05:09:41;41.85;;;17.48;;
54502;SDS011;40411;50.090;21.954;2023-11-19T05:12:08;28.15;;;12.57;;
54502;SDS011;40411;50.090;21.954;2023-11-19T05:14:37;12.25;;;6.25;;
54502;SDS011;40411;50.090;21.954;2023-11-19T05:17:03;8.40;;;3.75;;
54502;SDS011;40411;50.090;21.954;2023-11-19T05:19:29;9.00;;;5.18;;
54502;SDS011;40411;50.090;21.954;2023-11-19T05:21:55;12.32;;;5.30;;
54502;SDS011;40411;50.090;21.954;2023-11-19T05:24:21;17.08;;;5.28;;
54502;SDS011;40411;50.090;21.954;2023-11-19T05:26:47;13.48;;;5.47;;
54502;SDS011;40411;50.090;21.954;2023-11-19T05:29:12;10.48;;;5.65;;
54502;SDS011;40411;50.090;21.954;2023-11-19T05:31:38;14.63;;;6.60;;
54502;SDS011;40411;50.090;21.954;2023-11-19T05:34:04;15.23;;;6.53;;
54502;SDS011;40411;50.090;21.954;2023-11-19T05:36:30;15.40;;;6.07;;
54502;SDS011;40411;50.090;21.954;2023-11-19T05:38:56;17.10;;;7.07;;
54502;SDS011;40411;50.090;21.954;2023-11-19T05:41:22;15.52;;;6.13;;
54502;SDS011;40411;50.090;21.954;2023-11-19T05:43:47;10.52;;;6.13;;
54502;SDS011;40411;50.090;21.954;2023-11-19T05:46:13;21.17;;;7.03;;
54502;SDS011;40411;50.090;21.954;2023-11-19T05:48:39;11.52;;;4.97;;
54502;SDS011;40411;50.090;21.954;2023-11-19T05:51:05;11.00;;;5.65;;
54502;SDS011;40411;50.090;21.954;2023-11-19T05:53:31;13.82;;;6.88;;
54502;SDS011;40411;50.090;21.954;2023-11-19T05:55:57;18.23;;;8.02;;
54502;SDS011;40411;50.090;21.954;2023-11-19T05:58:23;19.23;;;9.90;;
54502;SDS011;40411;50.090;21.954;2023-11-19T06:00:51;18.33;;;8.43;;
54502;SDS011;40411;50.090;21.954;2023-11-19T06:03:18;9.05;;;4.53;;
54502;SDS011;40411;50.090;21.954;2023-11-19T06:05:44;15.27;;;5.22;;
54502;SDS011;40411;50.090;21.954;2023-11-19T06:08:11;12.15;;;6.15;;
54502;SDS011;40411;50.090;21.954;2023-11-19T06:10:40;17.50;;;6.72;;
54502;SDS011;40411;50.090;21.954;2023-11-19T06:13:06;15.27;;;6.88;;
54502;SDS011;40411;50.090;21.954;2023-11-19T06:15:33;21.73;;;8.23;;
54502;SDS011;40411;50.090;21.954;2023-11-19T06:17:58;16.83;;;6.57;;
54502;SDS011;40411;50.090;21.954;2023-11-19T06:20:32;13.55;;;6.30;;
54502;SDS011;40411;50.090;21.954;2023-11-19T06:22:58;11.27;;;5.68;;
54502;SDS011;40411;50.090;21.954;2023-11-19T06:25:25;16.20;;;8.13;;
54502;SDS011;40411;50.090;21.954;2023-11-19T06:27:51;10.70;;;4.95;;
54502;SDS011;40411;50.090;21.954;2023-11-19T06:30:18;10.75;;;5.28;;
54502;SDS011;40411;50.090;21.954;2023-11-19T06:32:44;13.52;;;5.80;;
54502;SDS011;40411;50.090;21.954;2023-11-19T06:35:13;14.65;;;6.70;;
54502;SDS011;40411;50.090;21.954;2023-11-19T06:37:39;15.63;;;8.32;;
54502;SDS011;40411;50.090;21.954;2023-11-19T06:40:07;17.80;;;7.90;;
54502;SDS011;40411;50.090;21.954;2023-11-19T06:42:34;16.13;;;8.60;;
54502;SDS011;40411;50.090;21.954;2023-11-19T06:45:01;17.58;;;8.40;;
54502;SDS011;40411;50.090;21.954;2023-11-19T06:47:28;13.10;;;6.22;;
54502;SDS011;40411;50.090;21.954;2023-11-19T06:49:55;14.00;;;6.57;;
54502;SDS011;40411;50.090;21.954;2023-11-19T06:52:20;16.65;;;8.18;;
54502;SDS011;40411;50.090;21.954;2023-11-19T06:54:47;14.80;;;7.60;;
54502;SDS011;40411;50.090;21.954;2023-11-19T06:57:13;17.33;;;7.65;;
54502;SDS011;40411;50.090;21.954;2023-11-19T06:59:39;13.32;;;6.45;;
54502;SDS011;40411;50.090;21.954;2023-11-19T07:02:05;23.25;;;9.00;;
54502;SDS011;40411;50.090;21.954;2023-11-19T07:04:32;19.13;;;8.77;;
54502;SDS011;40411;50.090;21.954;2023-11-19T07:07:00;19.08;;;7.53;;
54502;SDS011;40411;50.090;21.954;2023-11-19T07:09:27;19.02;;;9.10;;
54502;SDS011;40411;50.090;21.954;2023-11-19T07:11:52;15.55;;;8.88;;
54502;SDS011;40411;50.090;21.954;2023-11-19T07:14:19;14.70;;;9.32;;
54502;SDS011;40411;50.090;21.954;2023-11-19T07:16:47;30.40;;;17.20;;
54502;SDS011;40411;50.090;21.954;2023-11-19T07:19:13;37.47;;;20.65;;
54502;SDS011;40411;50.090;21.954;2023-11-19T07:21:42;35.50;;;17.90;;
54502;SDS011;40411;50.090;21.954;2023-11-19T07:24:10;19.88;;;11.05;;
54502;SDS011;40411;50.090;21.954;2023-11-19T07:26:45;17.45;;;8.95;;
54502;SDS011;40411;50.090;21.954;2023-11-19T07:29:13;21.20;;;8.43;;
54502;SDS011;40411;50.090;21.954;2023-11-19T07:31:40;31.15;;;16.05;;
54502;SDS011;40411;50.090;21.954;2023-11-19T07:34:06;28.05;;;13.43;;
54502;SDS011;40411;50.090;21.954;2023-11-19T07:36:32;23.90;;;10.98;;
54502;SDS011;40411;50.090;21.954;2023-11-19T07:38:58;51.88;;;17.88;;
54502;SDS011;40411;50.090;21.954;2023-11-19T07:41:24;67.05;;;25.40;;
54502;SDS011;40411;50.090;21.954;2023-11-19T07:43:50;37.40;;;14.88;;
54502;SDS011;40411;50.090;21.954;2023-11-19T07:46:17;23.05;;;11.85;;
54502;SDS011;40411;50.090;21.954;2023-11-19T07:48:45;31.45;;;12.48;;
54502;SDS011;40411;50.090;21.954;2023-11-19T07:51:12;21.27;;;8.95;;
54502;SDS011;40411;50.090;21.954;2023-11-19T07:53:39;26.80;;;11.50;;
54502;SDS011;40411;50.090;21.954;2023-11-19T07:56:06;23.40;;;10.38;;
54502;SDS011;40411;50.090;21.954;2023-11-19T07:58:33;19.70;;;9.93;;
54502;SDS011;40411;50.090;21.954;2023-11-19T08:00:59;14.40;;;8.10;;
54502;SDS011;40411;50.090;21.954;2023-11-19T08:03:25;16.05;;;8.63;;
54502;SDS011;40411;50.090;21.954;2023-11-19T08:05:50;21.92;;;9.40;;
54502;SDS011;40411;50.090;21.954;2023-11-19T08:08:16;21.08;;;7.50;;
54502;SDS011;40411;50.090;21.954;2023-11-19T08:10:43;11.88;;;5.40;;
54502;SDS011;40411;50.090;21.954;2023-11-19T08:13:10;14.43;;;6.72;;
54502;SDS011;40411;50.090;21.954;2023-11-19T08:15:37;14.13;;;6.72;;
54502;SDS011;40411;50.090;21.954;2023-11-19T08:18:02;13.35;;;6.35;;
54502;SDS011;40411;50.090;21.954;2023-11-19T08:20:28;18.73;;;9.38;;
54502;SDS011;40411;50.090;21.954;2023-11-19T08:22:54;19.75;;;7.35;;
54502;SDS011;40411;50.090;21.954;2023-11-19T08:25:20;16.48;;;5.28;;
54502;SDS011;40411;50.090;21.954;2023-11-19T08:27:46;10.95;;;5.47;;
54502;SDS011;40411;50.090;21.954;2023-11-19T08:30:12;11.52;;;5.30;;
54502;SDS011;40411;50.090;21.954;2023-11-19T08:32:38;10.80;;;5.32;;
54502;SDS011;40411;50.090;21.954;2023-11-19T08:35:04;12.23;;;6.15;;
54502;SDS011;40411;50.090;21.954;2023-11-19T08:37:30;9.98;;;5.10;;
54502;SDS011;40411;50.090;21.954;2023-11-19T08:39:56;12.27;;;5.00;;
54502;SDS011;40411;50.090;21.954;2023-11-19T08:42:22;8.00;;;3.15;;
54502;SDS011;40411;50.090;21.954;2023-11-19T08:44:48;9.02;;;4.40;;
54502;SDS011;40411;50.090;21.954;2023-11-19T08:47:16;11.07;;;5.35;;
54502;SDS011;40411;50.090;21.954;2023-11-19T08:49:44;13.20;;;6.75;;
54502;SDS011;40411;50.090;21.954;2023-11-19T08:52:10;5.40;;;3.05;;
54502;SDS011;40411;50.090;21.954;2023-11-19T08:54:36;11.05;;;5.00;;
54502;SDS011;40411;50.090;21.954;2023-11-19T08:57:02;18.45;;;7.72;;
54502;SDS011;40411;50.090;21.954;2023-11-19T08:59:29;18.13;;;8.98;;
54502;SDS011;40411;50.090;21.954;2023-11-19T09:01:55;13.43;;;6.05;;
54502;SDS011;40411;50.090;21.954;2023-11-19T09:04:21;20.25;;;9.60;;
54502;SDS011;40411;50.090;21.954;2023-11-19T09:06:50;35.80;;;14.98;;
54502;SDS011;40411;50.090;21.954;2023-11-19T09:09:16;41.17;;;19.05;;
54502;SDS011;40411;50.090;21.954;2023-11-19T09:11:42;19.58;;;7.88;;
54502;SDS011;40411;50.090;21.954;2023-11-19T09:14:08;14.80;;;6.32;;
54502;SDS011;40411;50.090;21.954;2023-11-19T09:16:33;13.07;;;5.78;;
54502;SDS011;40411;50.090;21.954;2023-11-19T09:18:59;18.77;;;7.80;;
54502;SDS011;40411;50.090;21.954;2023-11-19T09:21:26;31.92;;;15.48;;
54502;SDS011;40411;50.090;21.954;2023-11-19T09:23:52;19.48;;;10.30;;
54502;SDS011;40411;50.090;21.954;2023-11-19T09:26:19;19.90;;;8.05;;
54502;SDS011;40411;50.090;21.954;2023-11-19T09:28:45;23.85;;;10.38;;
54502;SDS011;40411;50.090;21.954;2023-11-19T09:31:14;12.45;;;5.35;;
54502;SDS011;40411;50.090;21.954;2023-11-19T09:33:40;13.15;;;7.05;;
54502;SDS011;40411;50.090;21.954;2023-11-19T09:36:06;9.77;;;4.90;;
54502;SDS011;40411;50.090;21.954;2023-11-19T09:38:32;11.80;;;5.53;;
54502;SDS011;40411;50.090;21.954;2023-11-19T09:40:58;14.68;;;7.35;;
54502;SDS011;40411;50.090;21.954;2023-11-19T09:43:26;11.23;;;6.20;;
54502;SDS011;40411;50.090;21.954;2023-11-19T09:45:53;29.45;;;14.02;;
54502;SDS011;40411;50.090;21.954;2023-11-19T09:48:21;26.52;;;12.38;;
54502;SDS011;40411;50.090;21.954;2023-11-19T09:50:50;33.78;;;18.65;;
54502;SDS011;40411;50.090;21.954;2023-11-19T09:53:17;17.83;;;9.05;;
54502;SDS011;40411;50.090;21.954;2023-11-19T09:55:43;21.38;;;9.07;;
54502;SDS011;40411;50.090;21.954;2023-11-19T09:58:10;15.13;;;6.85;;
54502;SDS011;40411;50.090;21.954;2023-11-19T10:00:39;11.85;;;5.93;;
54502;SDS011;40411;50.090;21.954;2023-11-19T10:03:06;10.43;;;4.57;;
54502;SDS011;40411;50.090;21.954;2023-11-19T10:05:33;10.25;;;4.88;;
54502;SDS011;40411;50.090;21.954;2023-11-19T10:08:01;10.85;;;3.45;;
54502;SDS011;40411;50.090;21.954;2023-11-19T10:10:28;12.90;;;5.18;;
54502;SDS011;40411;50.090;21.954;2023-11-19T10:12:54;7.43;;;3.80;;
54502;SDS011;40411;50.090;21.954;2023-11-19T10:15:21;9.55;;;4.43;;
54502;SDS011;40411;50.090;21.954;2023-11-19T10:17:50;8.20;;;4.00;;
54502;SDS011;40411;50.090;21.954;2023-11-19T10:20:16;9.15;;;3.75;;
54502;SDS011;40411;50.090;21.954;2023-11-19T10:22:42;7.47;;;3.97;;
54502;SDS011;40411;50.090;21.954;2023-11-19T10:25:21;14.10;;;5.88;;
54502;SDS011;40411;50.090;21.954;2023-11-19T10:27:52;6.07;;;3.17;;
54502;SDS011;40411;50.090;21.954;2023-11-19T10:30:28;15.05;;;6.05;;
54502;SDS011;40411;50.090;21.954;2023-11-19T10:33:04;17.42;;;6.85;;
54502;SDS011;40411;50.090;21.954;2023-11-19T10:35:35;11.15;;;5.55;;
54502;SDS011;40411;50.090;21.954;2023-11-19T10:38:25;15.90;;;6.88;;
54502;SDS011;40411;50.090;21.954;2023-11-19T10:40:52;11.00;;;4.63;;
54502;SDS011;40411;50.090;21.954;2023-11-19T10:43:18;12.13;;;4.53;;
54502;SDS011;40411;50.090;21.954;2023-11-19T10:45:45;13.70;;;6.22;;
54502;SDS011;40411;50.090;21.954;2023-11-19T10:48:11;15.70;;;6.03;;
54502;SDS011;40411;50.090;21.954;2023-11-19T10:50:38;14.43;;;6.88;;
54502;SDS011;40411;50.090;21.954;2023-11-19T10:53:06;9.13;;;4.45;;
54502;SDS011;40411;50.090;21.954;2023-11-19T10:55:35;16.25;;;6.88;;
54502;SDS011;40411;50.090;21.954;2023-11-19T10:58:05;17.17;;;7.10;;
54502;SDS011;40411;50.090;21.954;2023-11-19T11:00:38;15.23;;;6.78;;
54502;SDS011;40411;50.090;21.954;2023-11-19T11:03:18;15.23;;;8.40;;
54502;SDS011;40411;50.090;21.954;2023-11-19T11:05:46;13.48;;;5.72;;
54502;SDS011;40411;50.090;21.954;2023-11-19T11:08:13;32.30;;;16.27;;
54502;SDS011;40411;50.090;21.954;2023-11-19T11:10:42;47.15;;;29.80;;
54502;SDS011;40411;50.090;21.954;2023-11-19T11:13:10;31.92;;;18.83;;
54502;SDS011;40411;50.090;21.954;2023-11-19T11:15:37;30.50;;;12.52;;
54502;SDS011;40411;50.090;21.954;2023-11-19T11:18:04;28.13;;;11.90;;
54502;SDS011;40411;50.090;21.954;2023-11-19T11:20:33;33.30;;;12.85;;
54502;SDS011;40411;50.090;21.954;2023-11-19T11:26:14;47.83;;;16.95;;
54502;SDS011;40411;50.090;21.954;2023-11-19T11:29:03;50.53;;;18.95;;
54502;SDS011;40411;50.090;21.954;2023-11-19T11:34:53;23.65;;;8.68;;
54502;SDS011;40411;50.090;21.954;2023-11-19T11:37:30;28.23;;;9.57;;
54502;SDS011;40411;50.090;21.954;2023-11-19T11:40:03;27.40;;;11.07;;
54502;SDS011;40411;50.090;21.954;2023-11-19T11:42:36;13.68;;;5.68;;
54502;SDS011;40411;50.090;21.954;2023-11-19T11:50:09;12.10;;;5.90;;
54502;SDS011;40411;50.090;21.954;2023-11-19T11:58:00;13.77;;;5.82;;
54502;SDS011;40411;50.090;21.954;2023-11-19T12:02:56;15.63;;;8.25;;
54502;SDS011;40411;50.090;21.954;2023-11-19T12:05:22;18.67;;;7.78;;
54502;SDS011;40411;50.090;21.954;2023-11-19T12:07:54;12.80;;;6.40;;
54502;SDS011;40411;50.090;21.954;2023-11-19T12:10:21;12.95;;;7.00;;
54502;SDS011;40411;50.090;21.954;2023-11-19T12:12:47;18.73;;;9.60;;
54502;SDS011;40411;50.090;21.954;2023-11-19T12:15:13;14.93;;;7.55;;
54502;SDS011;40411;50.090;21.954;2023-11-19T12:17:50;12.30;;;6.07;;
54502;SDS011;40411;50.090;21.954;2023-11-19T12:20:17;11.05;;;4.47;;
54502;SDS011;40411;50.090;21.954;2023-11-19T12:22:44;11.43;;;5.35;;
54502;SDS011;40411;50.090;21.954;2023-11-19T12:25:12;13.88;;;7.25;;
54502;SDS011;40411;50.090;21.954;2023-11-19T12:27:43;17.05;;;6.25;;
54502;SDS011;40411;50.090;21.954;2023-11-19T12:30:10;18.33;;;7.20;;
54502;SDS011;40411;50.090;21.954;2023-11-19T12:32:41;14.32;;;4.72;;
54502;SDS011;40411;50.090;21.954;2023-11-19T12:35:08;10.20;;;5.35;;
54502;SDS011;40411;50.090;21.954;2023-11-19T12:37:40;9.07;;;4.25;;
54502;SDS011;40411;50.090;21.954;2023-11-19T12:40:10;11.43;;;5.20;;
54502;SDS011;40411;50.090;21.954;2023-11-19T12:42:40;13.23;;;5.03;;
54502;SDS011;40411;50.090;21.954;2023-11-19T12:45:07;8.02;;;3.75;;
54502;SDS011;40411;50.090;21.954;2023-11-19T12:47:36;12.38;;;5.25;;
54502;SDS011;40411;50.090;21.954;2023-11-19T12:50:02;23.98;;;9.23;;
54502;SDS011;40411;50.090;21.954;2023-11-19T12:52:29;28.02;;;12.27;;
54502;SDS011;40411;50.090;21.954;2023-11-19T12:54:55;17.35;;;9.00;;
54502;SDS011;40411;50.090;21.954;2023-11-19T12:57:35;11.63;;;5.97;;
54502;SDS011;40411;50.090;21.954;2023-11-19T13:00:02;11.68;;;6.00;;
54502;SDS011;40411;50.090;21.954;2023-11-19T13:02:44;15.07;;;7.38;;
54502;SDS011;40411;50.090;21.954;2023-11-19T13:05:30;19.60;;;7.57;;
54502;SDS011;40411;50.090;21.954;2023-11-19T13:08:01;17.27;;;8.77;;
54502;SDS011;40411;50.090;21.954;2023-11-19T13:10:31;20.58;;;7.80;;
54502;SDS011;40411;50.090;21.954;2023-11-19T13:13:07;23.27;;;9.30;;
54502;SDS011;40411;50.090;21.954;2023-11-19T13:15:34;20.73;;;8.70;;
54502;SDS011;40411;50.090;21.954;2023-11-19T13:18:01;14.70;;;6.22;;
54502;SDS011;40411;50.090;21.954;2023-11-19T13:20:28;15.55;;;7.55;;
54502;SDS011;40411;50.090;21.954;2023-11-19T13:23:01;25.90;;;6.93;;
54502;SDS011;40411;50.090;21.954;2023-11-19T13:25:30;12.35;;;6.47;;
54502;SDS011;40411;50.090;21.954;2023-11-19T13:27:57;22.70;;;7.53;;
54502;SDS011;40411;50.090;21.954;2023-11-19T13:30:24;12.38;;;6.30;;
54502;SDS011;40411;50.090;21.954;2023-11-19T13:32:51;21.40;;;8.25;;
54502;SDS011;40411;50.090;21.954;2023-11-19T13:35:17;15.27;;;6.65;;
54502;SDS011;40411;50.090;21.954;2023-11-19T13:37:44;22.52;;;9.63;;
54502;SDS011;40411;50.090;21.954;2023-11-19T13:40:11;14.93;;;6.43;;
54502;SDS011;40411;50.090;21.954;2023-11-19T13:42:42;19.20;;;9.88;;
54502;SDS011;40411;50.090;21.954;2023-11-19T13:45:11;15.10;;;7.07;;
54502;SDS011;40411;50.090;21.954;2023-11-19T13:47:39;15.70;;;7.38;;
54502;SDS011;40411;50.090;21.954;2023-11-19T13:50:09;12.70;;;5.82;;
54502;SDS011;40411;50.090;21.954;2023-11-19T13:52:39;12.57;;;4.88;;
54502;SDS011;40411;50.090;21.954;2023-11-19T13:55:07;10.40;;;5.07;;
54502;SDS011;40411;50.090;21.954;2023-11-19T13:57:35;9.07;;;5.00;;
54502;SDS011;40411;50.090;21.954;2023-11-19T14:00:02;14.55;;;6.82;;
54502;SDS011;40411;50.090;21.954;2023-11-19T14:02:34;10.95;;;5.57;;
54502;SDS011;40411;50.090;21.954;2023-11-19T14:05:00;11.07;;;5.15;;
54502;SDS011;40411;50.090;21.954;2023-11-19T14:07:26;8.70;;;4.20;;
54502;SDS011;40411;50.090;21.954;2023-11-19T14:09:53;8.65;;;3.97;;
54502;SDS011;40411;50.090;21.954;2023-11-19T14:12:19;11.02;;;4.40;;
54502;SDS011;40411;50.090;21.954;2023-11-19T14:14:45;9.43;;;4.65;;
54502;SDS011;40411;50.090;21.954;2023-11-19T14:17:11;10.07;;;4.05;;
54502;SDS011;40411;50.090;21.954;2023-11-19T14:19:38;10.00;;;4.32;;
54502;SDS011;40411;50.090;21.954;2023-11-19T14:22:04;7.38;;;3.38;;
54502;SDS011;40411;50.090;21.954;2023-11-19T14:24:31;12.43;;;5.13;;
54502;SDS011;40411;50.090;21.954;2023-11-19T14:26:57;11.85;;;4.88;;
54502;SDS011;40411;50.090;21.954;2023-11-19T14:29:27;7.28;;;3.80;;
54502;SDS011;40411;50.090;21.954;2023-11-19T14:31:55;9.38;;;4.10;;
54502;SDS011;40411;50.090;21.954;2023-11-19T14:34:21;10.10;;;4.22;;
54502;SDS011;40411;50.090;21.954;2023-11-19T14:36:47;13.68;;;4.85;;
54502;SDS011;40411;50.090;21.954;2023-11-19T14:39:14;13.00;;;5.32;;
54502;SDS011;40411;50.090;21.954;2023-11-19T14:41:40;12.82;;;5.93;;
54502;SDS011;40411;50.090;21.954;2023-11-19T14:44:06;36.60;;;14.00;;